Time;durP1;ratioP1;P1;durP2;ratioP2;P2;SDS_P1;SDS_P2;PMS_P1;PMS_P2;Temp;Humidity;BMP_temperature;BMP_pressure;BME280_temperature;BME280_humidity;BME280_pressure;Samples;Min_cycle;Max_cycle;Signal;HPM_P1;HPM_P2
2023/12/27 00:00:10;;;;;;;7.25;1.90;;;;;;;;;;10551496;28;20508;-74
2023/12/27 00:05:14;;;;;;;4.05;1.60;;;;;;;;;;10560680;28;20097;-75
2023/12/27 00:10:21;;;;;;;2.88;1.35;;;;;;;;;;10560981;28;20033;-75
2023/12/27 00:15:27;;;;;;;6.38;1.65;;;;;;;;;;10554588;28;20077;-75
2023/12/27 00:20:31;;;;;;;4.50;1.58;;;;;;;;;;10570677;27;20043;-75
2023/12/27 00:25:35;;;;;;;2.90;1.85;;;;;;;;;;10568972;28;20122;-76
2023/12/27 00:30:38;;;;;;;3.75;1.45;;;;;;;;;;10543839;27;20063;-76
2023/12/27 00:35:40;;;;;;;2.80;1.42;;;;;;;;;;10565374;27;20043;-73
2023/12/27 00:40:45;;;;;;;3.50;1.23;;;;;;;;;;10559297;28;20085;-73
2023/12/27 00:45:48;;;;;;;7.60;1.70;;;;;;;;;;10572654;28;20047;-73
2023/12/27 00:50:58;;;;;;;5.72;1.48;;;;;;;;;;10553726;27;20091;-72
2023/12/27 00:56:04;;;;;;;4.00;1.70;;;;;;;;;;10561062;27;20105;-74
2023/12/27 01:01:06;;;;;;;;;;;;;;;;;;10565472;27;20098;-74
2023/12/27 01:06:09;;;;;;;2.72;1.27;;;;;;;;;;10565158;27;19919;-76
2023/12/27 01:11:13;;;;;;;5.97;1.60;;;;;;;;;;10563464;28;20097;-77
2023/12/27 01:16:16;;;;;;;2.55;1.20;;;;;;;;;;10567069;27;20313;-76
2023/12/27 01:21:19;;;;;;;3.30;1.45;;;;;;;;;;10561209;27;20035;-77
2023/12/27 01:26:23;;;;;;;2.83;1.42;;;;;;;;;;10560071;28;20051;-76
2023/12/27 01:31:26;;;;;;;2.15;1.50;;;;;;;;;;10558297;28;20060;-77
2023/12/27 01:36:28;;;;;;;3.60;1.48;;;;;;;;;;10563920;28;20047;-75
2023/12/27 01:41:34;;;;;;;3.13;1.38;;;;;;;;;;10565512;27;20048;-76
2023/12/27 01:46:46;;;;;;;2.53;0.82;;;;;;;;;;10557580;27;20054;-76
2023/12/27 01:51:48;;;;;;;3.40;1.70;;;;;;;;;;10557139;27;20060;-74
2023/12/27 01:56:52;;;;;;;3.15;1.27;;;;;;;;;;10554706;27;20070;-75
2023/12/27 02:01:55;;;;;;;;;;;;;;;;;;10555799;28;20027;-75
2023/12/27 02:06:58;;;;;;;3.70;1.33;;;;;;;;;;10552721;28;20377;-75
2023/12/27 02:12:02;;;;;;;1.33;1.20;;;;;;;;;;10561634;28;20135;-76
2023/12/27 02:17:05;;;;;;;5.15;1.33;;;;;;;;;;10551081;27;20055;-74
2023/12/27 02:22:09;;;;;;;3.13;0.68;;;;;;;;;;10556260;27;20036;-75
2023/12/27 02:27:14;;;;;;;1.42;0.73;;;;;;;;;;10557190;27;20036;-77
2023/12/27 02:32:17;;;;;;;3.13;1.00;;;;;;;;;;10555532;27;20447;-76
2023/12/27 02:37:21;;;;;;;1.30;0.50;;;;;;;;;;10537662;27;20446;-76
2023/12/27 02:42:28;;;;;;;2.10;1.27;;;;;;;;;;10549156;28;20433;-76
2023/12/27 02:47:32;;;;;;;1.38;1.20;;;;;;;;;;10550418;27;20050;-76
2023/12/27 02:52:34;;;;;;;1.55;0.90;;;;;;;;;;10552360;27;20051;-74
2023/12/27 02:57:38;;;;;;;3.55;1.10;;;;;;;;;;10549506;27;20052;-75
2023/12/27 03:02:41;;;;;;;2.22;1.08;;;;;;;;;;10555059;27;20040;-75
2023/12/27 03:07:44;;;;;;;3.65;1.17;;;;;;;;;;10555776;28;20487;-75
2023/12/27 03:12:51;;;;;;;2.05;1.30;;;;;;;;;;10554784;27;20605;-75
2023/12/27 03:17:53;;;;;;;3.63;1.30;;;;;;;;;;10548815;28;20123;-75
2023/12/27 03:22:58;;;;;;;2.70;1.40;;;;;;;;;;10551028;28;20051;-75
2023/12/27 03:28:03;;;;;;;3.42;1.02;;;;;;;;;;10528708;28;20092;-75
2023/12/27 03:33:05;;;;;;;3.50;1.30;;;;;;;;;;10552049;28;20036;-76
2023/12/27 03:38:08;;;;;;;5.03;1.20;;;;;;;;;;10545833;28;20035;-76
2023/12/27 03:43:13;;;;;;;1.42;1.00;;;;;;;;;;10546064;28;20037;-76
2023/12/27 03:48:15;;;;;;;4.18;1.38;;;;;;;;;;10547101;28;20121;-75
2023/12/27 03:53:18;;;;;;;3.15;1.30;;;;;;;;;;10552952;28;20447;-75
2023/12/27 03:58:22;;;;;;;2.35;1.00;;;;;;;;;;10545782;28;20101;-75
2023/12/27 04:03:25;;;;;;;3.33;1.30;;;;;;;;;;10550098;28;20157;-75
2023/12/27 04:08:30;;;;;;;2.90;1.15;;;;;;;;;;10555048;28;20038;-75
2023/12/27 04:13:34;;;;;;;4.18;1.60;;;;;;;;;;10550206;28;20051;-75
2023/12/27 04:18:36;;;;;;;;;;;;;;;;;;10545496;28;20097;-73
2023/12/27 04:23:39;;;;;;;4.45;1.27;;;;;;;;;;10550965;28;19920;-73
2023/12/27 04:28:43;;;;;;;5.15;1.30;;;;;;;;;;10550751;28;20040;-74
2023/12/27 04:33:46;;;;;;;5.70;1.35;;;;;;;;;;10544178;28;20052;-75
2023/12/27 04:38:49;;;;;;;2.58;1.30;;;;;;;;;;10546849;28;20059;-75
2023/12/27 04:43:53;;;;;;;5.22;1.38;;;;;;;;;;10546750;28;20544;-76
2023/12/27 04:48:55;;;;;;;4.47;1.48;;;;;;;;;;10553388;27;20135;-74
2023/12/27 04:53:58;;;;;;;3.35;1.45;;;;;;;;;;10553826;28;20089;-74
2023/12/27 04:59:02;;;;;;;6.18;1.35;;;;;;;;;;10552111;27;20557;-75
2023/12/27 05:04:05;;;;;;;4.50;1.52;;;;;;;;;;10552381;27;20040;-74
2023/12/27 05:09:08;;;;;;;6.88;1.77;;;;;;;;;;10559950;28;20069;-74
2023/12/27 05:14:12;;;;;;;4.40;1.60;;;;;;;;;;10549624;27;20501;-74
2023/12/27 05:19:14;;;;;;;;;;;;;;;;;;10554768;27;20481;-75
2023/12/27 05:24:17;;;;;;;2.80;1.10;;;;;;;;;;10552513;27;20018;-74
2023/12/27 05:29:21;;;;;;;2.20;1.10;;;;;;;;;;10561322;27;20070;-75
2023/12/27 05:34:24;;;;;;;;;;;;;;;;;;10558446;27;20132;-75
2023/12/27 05:39:27;;;;;;;5.55;1.65;;;;;;;;;;10558716;28;20363;-75
2023/12/27 05:44:31;;;;;;;1.80;1.20;;;;;;;;;;10556905;28;20054;-75
2023/12/27 05:49:34;;;;;;;1.30;1.10;;;;;;;;;;10577352;28;20039;-76
2023/12/27 05:54:37;;;;;;;4.40;1.05;;;;;;;;;;10591541;27;20181;-75
2023/12/27 05:59:41;;;;;;;5.45;1.38;;;;;;;;;;10571903;27;20051;-74
2023/12/27 06:04:43;;;;;;;3.85;1.42;;;;;;;;;;10567602;27;20147;-74
2023/12/27 06:09:46;;;;;;;4.75;1.80;;;;;;;;;;10562149;27;20035;-74
2023/12/27 06:14:50;;;;;;;3.00;1.55;;;;;;;;;;10547395;28;20489;-75
2023/12/27 06:19:52;;;;;;;6.35;1.88;;;;;;;;;;10555261;27;20047;-74
2023/12/27 06:24:55;;;;;;;3.90;1.67;;;;;;;;;;10554588;28;20028;-75
2023/12/27 06:29:59;;;;;;;7.68;1.88;;;;;;;;;;10552241;27;20484;-75
2023/12/27 06:35:03;;;;;;;1.17;0.52;;;;;;;;;;10561361;27;20031;-75
2023/12/27 06:40:06;;;;;;;5.43;1.70;;;;;;;;;;10545355;28;20512;-74
2023/12/27 06:45:14;;;;;;;3.27;1.23;;;;;;;;;;10553742;28;20477;-76
2023/12/27 06:50:16;;;;;;;3.33;1.60;;;;;;;;;;10551159;27;20052;-75
2023/12/27 06:55:19;;;;;;;2.42;1.48;;;;;;;;;;10553161;28;20103;-75
2023/12/27 07:00:23;;;;;;;3.70;1.65;;;;;;;;;;10555282;27;20118;-74
2023/12/27 07:05:26;;;;;;;6.43;1.83;;;;;;;;;;10557444;28;20601;-74
2023/12/27 07:10:28;;;;;;;2.97;1.30;;;;;;;;;;10550509;28;20056;-74
2023/12/27 07:15:32;;;;;;;0.55;0.40;;;;;;;;;;10549405;27;20043;-74
2023/12/27 07:20:35;;;;;;;4.13;1.40;;;;;;;;;;10530370;28;20042;-74
2023/12/27 07:25:38;;;;;;;3.22;1.35;;;;;;;;;;10560374;27;20043;-75
2023/12/27 07:30:42;;;;;;;2.17;1.50;;;;;;;;;;10558677;28;20075;-76
2023/12/27 07:35:45;;;;;;;5.68;1.60;;;;;;;;;;10566049;28;20040;-73
2023/12/27 07:40:48;;;;;;;3.65;1.55;;;;;;;;;;10553455;28;20044;-75
2023/12/27 07:45:52;;;;;;;2.08;1.38;;;;;;;;;;10542417;28;20155;-75
2023/12/27 07:50:55;;;;;;;3.20;1.27;;;;;;;;;;10556819;28;20077;-75
2023/12/27 07:55:58;;;;;;;2.73;1.43;;;;;;;;;;10554428;28;20124;-75
2023/12/27 08:01:02;;;;;;;3.83;1.60;;;;;;;;;;10547319;28;20135;-74
2023/12/27 08:12:12;;;;;;;4.63;1.90;;;;;;;;;;10547166;28;20038;-74
2023/12/27 08:17:16;;;;;;;3.97;1.77;;;;;;;;;;10528755;28;20655;-75
2023/12/27 08:22:20;;;;;;;1.73;1.08;;;;;;;;;;10544549;28;20051;-75
2023/12/27 08:27:26;;;;;;;2.90;1.50;;;;;;;;;;10554878;28;20036;-74
2023/12/27 08:32:31;;;;;;;3.58;1.42;;;;;;;;;;10552333;28;20158;-74
2023/12/27 08:37:36;;;;;;;;;;;;;;;;;;10562272;28;20504;-75
2023/12/27 08:42:40;;;;;;;0.73;0.65;;;;;;;;;;10554351;28;19923;-76
2023/12/27 08:47:46;;;;;;;3.97;1.83;;;;;;;;;;10561878;27;20064;-75
2023/12/27 08:52:48;;;;;;;1.85;1.60;;;;;;;;;;10561959;27;20132;-76
2023/12/27 08:57:53;;;;;;;1.40;1.30;;;;;;;;;;10564171;27;20077;-75
2023/12/27 09:02:58;;;;;;;1.95;1.13;;;;;;;;;;10564789;27;20043;-75
2023/12/27 09:08:01;;;;;;;2.22;1.45;;;;;;;;;;10553807;28;20180;-75
2023/12/27 09:13:03;;;;;;;2.15;1.48;;;;;;;;;;10567633;27;20185;-75
2023/12/27 09:18:08;;;;;;;2.07;0.83;;;;;;;;;;10570434;27;20509;-75
2023/12/27 09:23:12;;;;;;;3.33;1.50;;;;;;;;;;10553254;28;20372;-76
2023/12/27 09:28:21;;;;;;;0.82;0.82;;;;;;;;;;10560732;27;20028;-76
2023/12/27 09:33:26;;;;;;;3.63;2.05;;;;;;;;;;10562281;28;20040;-74
2023/12/27 09:38:29;;;;;;;4.22;2.45;;;;;;;;;;10558052;28;20040;-76
2023/12/27 09:43:33;;;;;;;2.88;1.75;;;;;;;;;;10547876;27;20187;-75
2023/12/27 09:48:38;;;;;;;3.65;2.40;;;;;;;;;;10555050;28;20105;-77
2023/12/27 09:53:42;;;;;;;3.33;2.20;;;;;;;;;;10561671;27;20054;-77
2023/12/27 09:58:46;;;;;;;3.15;2.10;;;;;;;;;;10540457;28;20126;-74
2023/12/27 10:03:53;;;;;;;3.92;1.92;;;;;;;;;;10563546;27;20127;-72
2023/12/27 10:08:57;;;;;;;2.00;1.90;;;;;;;;;;10560217;27;20405;-72
2023/12/27 10:14:04;;;;;;;3.15;2.10;;;;;;;;;;10555690;27;20135;-74
2023/12/27 10:19:08;;;;;;;2.58;2.03;;;;;;;;;;10553936;28;20127;-75
2023/12/27 10:24:11;;;;;;;1.90;1.63;;;;;;;;;;10554149;27;20366;-77
2023/12/27 10:29:17;;;;;;;2.22;1.50;;;;;;;;;;10554772;27;20570;-75
2023/12/27 10:34:21;;;;;;;2.97;1.80;;;;;;;;;;10545875;28;20469;-74
2023/12/27 10:39:27;;;;;;;2.47;1.48;;;;;;;;;;10543422;27;20039;-75
2023/12/27 10:44:31;;;;;;;1.85;1.40;;;;;;;;;;10547732;27;20044;-75
2023/12/27 10:49:36;;;;;;;2.85;1.80;;;;;;;;;;10549805;28;20420;-74
2023/12/27 10:54:44;;;;;;;8.93;2.38;;;;;;;;;;10552971;27;20062;-75
2023/12/27 10:59:48;;;;;;;5.80;2.22;;;;;;;;;;10546208;28;20646;-76
2023/12/27 11:04:53;;;;;;;1.80;1.70;;;;;;;;;;10557050;28;20028;-75
2023/12/27 11:09:58;;;;;;;4.72;2.10;;;;;;;;;;10553475;27;20112;-75
2023/12/27 11:15:02;;;;;;;2.47;1.70;;;;;;;;;;10556232;28;20297;-75
2023/12/27 11:20:08;;;;;;;2.25;1.60;;;;;;;;;;10553178;28;20092;-74
2023/12/27 11:25:10;;;;;;;3.45;1.98;;;;;;;;;;10559655;28;20051;-75
2023/12/27 11:30:14;;;;;;;1.98;1.75;;;;;;;;;;10555971;28;20070;-74
2023/12/27 11:35:24;;;;;;;2.20;1.70;;;;;;;;;;10548036;28;20490;-74
2023/12/27 11:40:34;;;;;;;1.70;1.60;;;;;;;;;;10551537;28;20495;-73
2023/12/27 11:45:57;;;;;;;2.60;2.10;;;;;;;;;;10557846;28;20039;-74
2023/12/27 11:51:02;;;;;;;3.03;2.22;;;;;;;;;;10559128;28;20051;-74
2023/12/27 11:56:05;;;;;;;2.50;2.00;;;;;;;;;;10557818;28;20028;-73
2023/12/27 12:01:21;;;;;;;2.67;2.05;;;;;;;;;;10548472;28;20120;-75
2023/12/27 12:06:34;;;;;;;2.05;1.85;;;;;;;;;;10571854;27;20046;-74
2023/12/27 12:11:37;;;;;;;1.67;1.50;;;;;;;;;;10566211;27;20047;-75
2023/12/27 12:16:39;;;;;;;2.03;1.92;;;;;;;;;;10554431;28;20435;-76
2023/12/27 12:21:43;;;;;;;3.28;2.25;;;;;;;;;;10559241;28;20039;-75
2023/12/27 12:26:56;;;;;;;2.38;2.08;;;;;;;;;;10565072;28;20040;-74
2023/12/27 12:31:59;;;;;;;3.30;2.20;;;;;;;;;;10552971;28;20071;-75
2023/12/27 12:37:02;;;;;;;;;;;;;;;;;;10559350;28;20396;-75
2023/12/27 12:42:08;;;;;;;2.93;1.97;;;;;;;;;;10556734;28;19920;-75
2023/12/27 12:47:11;;;;;;;3.10;1.77;;;;;;;;;;10561227;27;21460;-75
2023/12/27 12:52:13;;;;;;;3.17;2.05;;;;;;;;;;10559542;27;20136;-75
2023/12/27 12:57:17;;;;;;;3.75;2.10;;;;;;;;;;10557065;28;20139;-76
2023/12/27 13:02:20;;;;;;;2.38;1.98;;;;;;;;;;10560207;28;20062;-75
2023/12/27 13:07:23;;;;;;;;;;;;;;;;;;10555852;27;20043;-75
2023/12/27 13:12:29;;;;;;;3.13;1.90;;;;;;;;;;10564468;28;19926;-74
2023/12/27 13:17:34;;;;;;;1.92;1.67;;;;;;;;;;10557920;28;20060;-74
2023/12/27 13:22:37;;;;;;;4.15;2.13;;;;;;;;;;10553066;27;20048;-75
2023/12/27 13:27:42;;;;;;;4.07;1.60;;;;;;;;;;10556086;28;20040;-76
2023/12/27 13:32:44;;;;;;;4.35;1.92;;;;;;;;;;10563861;27;20408;-75
2023/12/27 13:37:47;;;;;;;3.27;1.60;;;;;;;;;;10568745;28;20040;-73
2023/12/27 13:42:51;;;;;;;3.45;1.50;;;;;;;;;;10573789;28;20070;-74
2023/12/27 13:48:02;;;;;;;5.82;1.50;;;;;;;;;;10590438;28;20064;-75
2023/12/27 13:53:06;;;;;;;4.78;1.35;;;;;;;;;;10582217;27;20079;-74
2023/12/27 13:58:12;;;;;;;1.15;0.93;;;;;;;;;;10559691;28;20044;-75
2023/12/27 14:03:15;;;;;;;4.97;1.60;;;;;;;;;;10563128;27;20046;-75
2023/12/27 14:08:19;;;;;;;4.33;1.37;;;;;;;;;;10558730;27;20834;-75
2023/12/27 14:13:24;;;;;;;3.17;1.47;;;;;;;;;;10565900;28;20312;-74
2023/12/27 14:18:27;;;;;;;4.43;1.70;;;;;;;;;;10553233;27;20432;-73
2023/12/27 14:23:30;;;;;;;2.47;1.17;;;;;;;;;;10539010;27;20050;-74
2023/12/27 14:28:35;;;;;;;2.72;1.27;;;;;;;;;;10556366;27;20480;-74
2023/12/27 14:33:37;;;;;;;2.63;1.23;;;;;;;;;;10548881;27;20037;-75
2023/12/27 14:38:41;;;;;;;2.57;1.53;;;;;;;;;;10557544;28;20067;-75
2023/12/27 14:43:47;;;;;;;4.38;1.80;;;;;;;;;;10561425;28;20039;-73
2023/12/27 14:48:51;;;;;;;3.33;1.23;;;;;;;;;;10560034;28;20035;-74
2023/12/27 14:53:54;;;;;;;4.47;1.40;;;;;;;;;;10559031;27;20044;-74
2023/12/27 14:58:58;;;;;;;5.20;1.85;;;;;;;;;;10560403;28;20286;-75
2023/12/27 15:04:01;;;;;;;2.47;1.40;;;;;;;;;;10557768;28;20093;-74
2023/12/27 15:09:04;;;;;;;3.80;1.57;;;;;;;;;;10552959;27;20144;-74
2023/12/27 15:14:08;;;;;;;3.92;1.77;;;;;;;;;;10553961;27;20050;-77
2023/12/27 15:19:11;;;;;;;3.55;1.33;;;;;;;;;;10548438;28;20068;-74
2023/12/27 15:24:14;;;;;;;4.05;1.90;;;;;;;;;;10552467;28;20389;-74
2023/12/27 15:29:19;;;;;;;6.80;2.80;;;;;;;;;;10554866;28;20404;-74
2023/12/27 15:34:22;;;;;;;5.82;2.33;;;;;;;;;;10546969;27;20066;-74
2023/12/27 15:39:26;;;;;;;3.50;2.30;;;;;;;;;;10549957;28;20043;-74
2023/12/27 15:44:35;;;;;;;6.53;2.60;;;;;;;;;;10552753;28;20040;-74
2023/12/27 15:49:38;;;;;;;4.97;3.00;;;;;;;;;;10548098;28;20050;-73
2023/12/27 15:54:43;;;;;;;5.97;2.50;;;;;;;;;;10560587;28;21328;-74
2023/12/27 15:59:47;;;;;;;4.70;2.50;;;;;;;;;;10556429;28;20114;-75
2023/12/27 16:04:50;;;;;;;4.55;2.13;;;;;;;;;;10544924;28;20038;-74
2023/12/27 16:09:53;;;;;;;0.95;0.88;;;;;;;;;;10553221;28;20040;-74
2023/12/27 16:14:58;;;;;;;3.05;1.23;;;;;;;;;;10554111;28;20548;-74
2023/12/27 16:20:01;;;;;;;;;;;;;;;;;;10553942;28;20043;-75
2023/12/27 16:25:07;;;;;;;3.00;1.27;;;;;;;;;;10550542;28;19931;-74
2023/12/27 16:30:13;;;;;;;1.90;1.17;;;;;;;;;;10534843;28;20035;-74
2023/12/27 16:35:18;;;;;;;4.93;2.50;;;;;;;;;;10549456;28;20052;-74
2023/12/27 16:40:21;;;;;;;4.13;1.88;;;;;;;;;;10549459;28;20076;-75
2023/12/27 16:45:27;;;;;;;3.90;1.38;;;;;;;;;;10544325;28;20043;-74
2023/12/27 16:50:30;;;;;;;2.83;1.40;;;;;;;;;;10553157;28;20035;-74
2023/12/27 16:55:33;;;;;;;5.00;1.45;;;;;;;;;;10557680;27;20039;-73
2023/12/27 17:00:38;;;;;;;4.22;1.95;;;;;;;;;;10564999;28;20040;-74
2023/12/27 17:05:42;;;;;;;3.47;1.05;;;;;;;;;;10557979;28;20044;-75
2023/12/27 17:10:45;;;;;;;6.05;2.40;;;;;;;;;;10557529;28;20114;-74
2023/12/27 17:15:50;;;;;;;5.65;1.77;;;;;;;;;;10557926;27;20053;-74
2023/12/27 17:20:52;;;;;;;3.83;1.77;;;;;;;;;;10555922;28;20166;-76
2023/12/27 17:25:56;;;;;;;4.13;1.80;;;;;;;;;;10553031;27;20119;-74
2023/12/27 17:31:01;;;;;;;5.35;2.50;;;;;;;;;;10558065;27;20028;-75
2023/12/27 17:36:04;;;;;;;6.28;3.00;;;;;;;;;;10557066;28;20485;-74
2023/12/27 17:41:07;;;;;;;4.82;2.28;;;;;;;;;;10557786;27;20128;-73
2023/12/27 17:46:11;;;;;;;11.43;3.22;;;;;;;;;;10558915;28;20062;-74
2023/12/27 17:51:13;;;;;;;7.35;2.95;;;;;;;;;;10559000;27;20470;-75
2023/12/27 17:56:16;;;;;;;9.00;2.38;;;;;;;;;;10546889;28;20055;-73
2023/12/27 18:01:20;;;;;;;9.60;3.42;;;;;;;;;;10552102;27;20170;-74
2023/12/27 18:06:23;;;;;;;1.58;1.10;;;;;;;;;;10549375;28;20696;-74
2023/12/27 18:11:25;;;;;;;7.35;3.28;;;;;;;;;;10553123;28;20039;-74
2023/12/27 18:16:29;;;;;;;8.15;3.70;;;;;;;;;;10551725;27;20051;-74
2023/12/27 18:21:33;;;;;;;;;;;;;;;;;;10551849;27;20680;-75
2023/12/27 18:26:38;;;;;;;9.57;3.72;;;;;;;;;;10546849;28;19920;-75
2023/12/27 18:31:45;;;;;;;11.45;3.80;;;;;;;;;;10547912;27;20044;-75
2023/12/27 18:36:50;;;;;;;11.82;4.55;;;;;;;;;;10548480;28;20534;-75
2023/12/27 18:41:53;;;;;;;14.80;6.00;;;;;;;;;;10535583;28;20651;-77
2023/12/27 18:46:58;;;;;;;14.63;6.07;;;;;;;;;;10561005;27;20066;-75
2023/12/27 18:52:00;;;;;;;12.48;5.72;;;;;;;;;;10546192;27;20386;-75
2023/12/27 18:57:03;;;;;;;8.20;3.55;;;;;;;;;;10557576;27;20051;-80
2023/12/27 19:02:07;;;;;;;11.75;5.35;;;;;;;;;;10561449;27;20035;-76
2023/12/27 19:07:10;;;;;;;12.63;5.72;;;;;;;;;;10557989;27;20067;-76
2023/12/27 19:12:12;;;;;;;13.07;4.65;;;;;;;;;;10555739;27;20101;-77
2023/12/27 19:17:16;;;;;;;12.77;5.78;;;;;;;;;;10551812;28;20054;-76
2023/12/27 19:22:19;;;;;;;13.02;5.65;;;;;;;;;;10544048;28;20166;-77
2023/12/27 19:27:21;;;;;;;10.07;4.38;;;;;;;;;;10560658;28;20054;-76
2023/12/27 19:32:26;;;;;;;11.35;4.90;;;;;;;;;;10550544;28;20054;-76
2023/12/27 19:37:28;;;;;;;;;;;;;;;;;;10561784;27;20446;-76
2023/12/27 19:42:31;;;;;;;11.00;4.55;;;;;;;;;;10539775;28;19923;-76
2023/12/27 19:47:35;;;;;;;10.82;4.07;;;;;;;;;;10562596;28;20048;-76
2023/12/27 19:52:37;;;;;;;12.35;4.07;;;;;;;;;;10550985;28;20047;-76
2023/12/27 19:57:40;;;;;;;10.23;3.95;;;;;;;;;;10560624;28;20058;-75
2023/12/27 20:02:44;;;;;;;14.95;4.60;;;;;;;;;;10561659;28;20128;-75
2023/12/27 20:07:47;;;;;;;10.90;4.68;;;;;;;;;;10553120;28;20119;-76
2023/12/27 20:12:50;;;;;;;9.00;3.35;;;;;;;;;;10559049;28;20330;-76
2023/12/27 20:17:54;;;;;;;6.55;2.80;;;;;;;;;;10561091;28;20465;-76
2023/12/27 20:22:57;;;;;;;9.93;3.50;;;;;;;;;;10551190;28;20044;-74
2023/12/27 20:28:00;;;;;;;1.50;1.00;;;;;;;;;;10564017;27;20506;-77
2023/12/27 20:33:05;;;;;;;8.60;3.40;;;;;;;;;;10556988;28;20077;-75
2023/12/27 20:38:08;;;;;;;9.88;3.42;;;;;;;;;;10555268;27;20039;-75
2023/12/27 20:43:11;;;;;;;6.25;2.40;;;;;;;;;;10560796;27;20059;-75
2023/12/27 20:48:16;;;;;;;8.52;2.97;;;;;;;;;;10570408;27;20059;-77
2023/12/27 20:53:18;;;;;;;7.03;2.70;;;;;;;;;;10562073;28;20523;-75
2023/12/27 20:58:21;;;;;;;9.70;3.33;;;;;;;;;;10553472;28;20040;-75
2023/12/27 21:03:25;;;;;;;5.72;2.42;;;;;;;;;;10555134;27;20051;-76
2023/12/27 21:08:28;;;;;;;8.02;3.53;;;;;;;;;;10558590;28;20035;-74
2023/12/27 21:13:32;;;;;;;8.20;3.40;;;;;;;;;;10564824;27;20034;-75
2023/12/27 21:18:36;;;;;;;8.40;3.30;;;;;;;;;;10566705;27;20134;-76
2023/12/27 21:23:39;;;;;;;8.85;3.63;;;;;;;;;;10569736;27;20070;-75
2023/12/27 21:28:41;;;;;;;7.63;3.15;;;;;;;;;;10568942;28;20063;-74
2023/12/27 21:33:45;;;;;;;8.68;2.75;;;;;;;;;;10566633;28;20086;-75
2023/12/27 21:38:52;;;;;;;4.20;1.02;;;;;;;;;;10570265;27;20132;-75
2023/12/27 21:43:56;;;;;;;6.50;2.42;;;;;;;;;;10547824;28;20051;-74
2023/12/27 21:49:00;;;;;;;6.35;2.88;;;;;;;;;;10553531;27;20146;-73
2023/12/27 21:54:03;;;;;;;;;;;;;;;;;;10545552;28;20047;-75
2023/12/27 21:59:05;;;;;;;6.88;3.10;;;;;;;;;;10555228;27;19920;-74
2023/12/27 22:04:09;;;;;;;5.05;2.72;;;;;;;;;;10555378;27;20047;-74
2023/12/27 22:09:12;;;;;;;4.22;1.42;;;;;;;;;;10535809;27;20449;-73
2023/12/27 22:14:15;;;;;;;6.20;2.42;;;;;;;;;;10551594;27;20078;-75
2023/12/27 22:19:18;;;;;;;7.10;2.55;;;;;;;;;;10558429;28;20043;-75
2023/12/27 22:24:21;;;;;;;3.55;1.27;;;;;;;;;;10566420;27;20572;-72
2023/12/27 22:29:24;;;;;;;1.65;0.95;;;;;;;;;;10611534;27;20036;-75
2023/12/27 22:34:28;;;;;;;4.15;1.70;;;;;;;;;;10597572;28;20035;-73
2023/12/27 22:39:31;;;;;;;;;;;;;;;;;;10585945;27;20043;-74
2023/12/27 22:44:33;;;;;;;3.92;1.65;;;;;;;;;;10569676;27;19936;-75
2023/12/27 22:49:37;;;;;;;3.35;1.38;;;;;;;;;;10567617;27;20085;-74
2023/12/27 22:54:40;;;;;;;4.50;1.65;;;;;;;;;;10567331;27;20328;-75
2023/12/27 22:59:43;;;;;;;0.70;0.43;;;;;;;;;;10548630;28;20044;-74
2023/12/27 23:04:47;;;;;;;3.97;2.10;;;;;;;;;;10550148;28;20043;-74
2023/12/27 23:09:50;;;;;;;6.85;1.65;;;;;;;;;;10552486;28;20034;-75
2023/12/27 23:14:52;;;;;;;4.78;1.88;;;;;;;;;;10559653;27;20050;-74
2023/12/27 23:19:56;;;;;;;5.40;2.00;;;;;;;;;;10541854;28;20130;-75
2023/12/27 23:25:00;;;;;;;2.30;1.45;;;;;;;;;;10559603;27;20043;-73
2023/12/27 23:30:03;;;;;;;5.45;1.50;;;;;;;;;;10559245;27;20071;-74
2023/12/27 23:35:07;;;;;;;1.95;1.05;;;;;;;;;;10553777;28;20051;-74
2023/12/27 23:40:10;;;;;;;;;;;;;;;;;;10550950;28;20036;-74
2023/12/27 23:45:13;;;;;;;1.05;0.75;;;;;;;;;;10549117;28;19946;-74
2023/12/27 23:50:17;;;;;;;3.22;0.68;;;;;;;;;;10527975;28;20149;-74
2023/12/27 23:55:20;;;;;;;0.82;0.50;;;;;;;;;;10554678;28;20044;-74
